createdAt,value
2023-01-29T00:00:27.758Z,1.37
2023-01-29T00:01:27.802Z,1.37
2023-01-29T00:02:27.861Z,1.37
2023-01-29T00:03:27.902Z,1.37
2023-01-29T00:04:27.907Z,1.36
2023-01-29T00:05:28.610Z,1.34
2023-01-29T00:06:27.990Z,1.35
2023-01-29T00:07:28.037Z,1.37
2023-01-29T00:08:28.056Z,1.41
2023-01-29T00:09:28.105Z,1.41
2023-01-29T00:10:28.142Z,1.41
2023-01-29T00:11:28.188Z,1.37
2023-01-29T00:12:28.216Z,1.38
2023-01-29T00:13:28.250Z,1.38
2023-01-29T00:14:28.273Z,1.37
2023-01-29T00:15:28.319Z,1.37
2023-01-29T00:16:28.359Z,1.39
2023-01-29T00:17:28.415Z,1.42
2023-01-29T00:18:28.436Z,1.42
2023-01-29T00:19:28.473Z,1.41
2023-01-29T00:20:28.512Z,1.43
2023-01-29T00:21:28.553Z,1.43
2023-01-29T00:22:28.598Z,1.42
2023-01-29T00:23:28.637Z,1.42
2023-01-29T00:24:28.810Z,1.42
2023-01-29T00:25:28.708Z,1.43
2023-01-29T00:26:28.753Z,1.42
2023-01-29T00:27:28.788Z,1.42
2023-01-29T00:28:28.829Z,1.42
2023-01-29T00:29:28.868Z,1.41
2023-01-29T00:30:28.892Z,1.42
2023-01-29T00:31:29.017Z,1.42
2023-01-29T00:32:28.957Z,1.41
2023-01-29T00:33:28.991Z,1.41
2023-01-29T00:34:29.028Z,1.42
2023-01-29T00:35:29.065Z,1.41
2023-01-29T00:36:29.106Z,1.43
2023-01-29T00:37:29.148Z,1.42
2023-01-29T00:38:29.186Z,1.43
2023-01-29T00:39:42.455Z,1.47
2023-01-29T00:40:29.265Z,1.47
2023-01-29T00:41:29.277Z,1.47
2023-01-29T00:42:29.351Z,1.47
2023-01-29T00:43:29.347Z,1.47
2023-01-29T00:44:29.382Z,1.47
2023-01-29T00:45:29.418Z,1.49
2023-01-29T00:46:29.472Z,1.49
2023-01-29T00:47:29.530Z,1.48
2023-01-29T00:48:29.554Z,1.48
2023-01-29T00:49:29.589Z,1.48
2023-01-29T00:50:29.637Z,1.48
2023-01-29T00:51:29.661Z,1.49
2023-01-29T00:52:29.704Z,1.49
2023-01-29T00:53:29.749Z,1.5
2023-01-29T00:54:31.414Z,1.52
2023-01-29T00:55:29.810Z,1.48
2023-01-29T00:56:29.859Z,1.49
2023-01-29T00:57:29.896Z,1.51
2023-01-29T00:58:29.943Z,1.5
2023-01-29T00:59:29.970Z,1.5
2023-01-29T01:00:30.017Z,1.5
2023-01-29T01:01:30.043Z,1.5
2023-01-29T01:02:30.090Z,1.5
2023-01-29T01:03:30.157Z,1.5
2023-01-29T01:04:30.196Z,1.5
2023-01-29T01:05:30.215Z,1.5
2023-01-29T01:06:30.240Z,1.5
2023-01-29T01:07:30.328Z,1.5
2023-01-29T01:08:30.319Z,1.5
2023-01-29T01:09:30.389Z,1.51
2023-01-29T01:10:30.402Z,1.51
2023-01-29T01:11:30.427Z,1.51
2023-01-29T01:12:30.461Z,1.51
2023-01-29T01:13:30.501Z,1.52
2023-01-29T01:14:30.570Z,1.52
2023-01-29T01:15:30.595Z,1.52
2023-01-29T01:16:30.696Z,1.52
2023-01-29T01:17:30.662Z,1.52
2023-01-29T01:18:30.700Z,1.52
2023-01-29T01:19:30.729Z,1.51
2023-01-29T01:20:30.783Z,1.51
2023-01-29T01:21:30.794Z,1.51
2023-01-29T01:22:30.838Z,1.51
2023-01-29T01:23:30.873Z,1.53
2023-01-29T01:24:30.919Z,1.52
2023-01-29T01:25:30.975Z,1.52
2023-01-29T01:26:30.978Z,1.53
2023-01-29T01:27:31.018Z,1.54
2023-01-29T01:28:31.092Z,1.54
2023-01-29T01:29:31.095Z,1.54
2023-01-29T01:30:31.135Z,1.55
2023-01-29T01:31:31.237Z,1.58
2023-01-29T01:32:31.196Z,1.57
2023-01-29T01:33:31.234Z,1.57
2023-01-29T01:34:31.260Z,1.57
2023-01-29T01:35:31.306Z,1.57
2023-01-29T01:36:31.336Z,1.58
2023-01-29T01:37:31.376Z,1.59
2023-01-29T01:38:31.414Z,1.58
2023-01-29T01:39:31.451Z,1.58
2023-01-29T01:40:31.501Z,1.59
2023-01-29T01:41:31.532Z,1.58
2023-01-29T01:42:31.572Z,1.59
2023-01-29T01:43:31.604Z,1.58
2023-01-29T01:44:31.662Z,1.58
2023-01-29T01:45:31.732Z,1.59
2023-01-29T01:46:31.724Z,1.62
2023-01-29T01:47:31.781Z,1.62
2023-01-29T01:48:31.781Z,1.62
2023-01-29T01:49:31.825Z,1.62
2023-01-29T01:50:31.851Z,1.63
2023-01-29T01:51:31.887Z,1.64
2023-01-29T01:52:31.949Z,1.64
2023-01-29T01:53:31.994Z,1.64
2023-01-29T01:54:32.001Z,1.64
2023-01-29T01:55:32.039Z,1.64
2023-01-29T01:56:32.066Z,1.64
2023-01-29T01:57:32.089Z,1.64
2023-01-29T01:58:32.153Z,1.64
2023-01-29T01:59:32.165Z,1.64
2023-01-29T02:00:32.210Z,1.64
2023-01-29T02:01:32.244Z,1.64
2023-01-29T02:02:32.318Z,1.64
2023-01-29T02:03:32.314Z,1.64
2023-01-29T02:04:32.350Z,1.66
2023-01-29T02:05:32.386Z,1.66
2023-01-29T02:06:32.435Z,1.64
2023-01-29T02:07:32.480Z,1.65
2023-01-29T02:08:32.494Z,1.65
2023-01-29T02:09:32.530Z,1.65
2023-01-29T02:10:32.560Z,1.64
2023-01-29T02:11:32.605Z,1.65
2023-01-29T02:12:32.671Z,1.65
2023-01-29T02:13:32.683Z,1.65
2023-01-29T02:14:32.892Z,1.65
2023-01-29T02:15:32.753Z,1.65
2023-01-29T02:16:32.788Z,1.65
2023-01-29T02:17:32.952Z,1.65
2023-01-29T02:18:32.867Z,1.65
2023-01-29T02:19:32.903Z,1.65
2023-01-29T02:20:32.925Z,1.65
2023-01-29T02:21:32.959Z,1.65
2023-01-29T02:22:33.001Z,1.66
2023-01-29T02:23:33.075Z,1.66
2023-01-29T02:24:33.162Z,1.66
2023-01-29T02:25:33.107Z,1.66
2023-01-29T02:26:33.161Z,1.66
2023-01-29T02:27:33.171Z,1.67
2023-01-29T02:28:33.210Z,1.67
2023-01-29T02:29:33.248Z,1.67
2023-01-29T02:30:33.273Z,1.67
2023-01-29T02:31:33.381Z,1.68
2023-01-29T02:32:33.356Z,1.68
2023-01-29T02:33:33.392Z,1.68
2023-01-29T02:34:33.429Z,1.69
2023-01-29T02:35:33.461Z,1.7
2023-01-29T02:36:33.528Z,1.71
2023-01-29T02:37:33.548Z,1.71
2023-01-29T02:38:33.561Z,1.71
2023-01-29T02:39:33.598Z,1.71
2023-01-29T02:40:33.622Z,1.71
2023-01-29T02:41:33.661Z,1.71
2023-01-29T02:42:33.759Z,1.71
2023-01-29T02:43:33.741Z,1.72
2023-01-29T02:44:33.780Z,1.71
2023-01-29T02:45:33.849Z,1.72
2023-01-29T02:46:33.833Z,1.71
2023-01-29T02:47:33.896Z,1.71
2023-01-29T02:48:33.908Z,1.71
2023-01-29T02:49:33.946Z,1.74
2023-01-29T02:50:33.991Z,1.72
2023-01-29T02:51:34.030Z,1.71
2023-01-29T02:52:34.062Z,1.71
2023-01-29T02:53:34.106Z,1.71
2023-01-29T02:54:34.135Z,1.72
2023-01-29T02:55:34.178Z,1.71
2023-01-29T02:56:34.210Z,1.72
2023-01-29T02:57:34.239Z,1.69
2023-01-29T02:58:34.295Z,1.7
2023-01-29T02:59:34.315Z,1.7
2023-01-29T03:00:34.346Z,1.7
2023-01-29T03:01:34.370Z,1.71
2023-01-29T03:02:34.484Z,1.71
2023-01-29T03:03:34.472Z,1.71
2023-01-29T03:04:34.486Z,1.71
2023-01-29T03:05:34.521Z,1.71
2023-01-29T03:06:34.565Z,1.71
2023-01-29T03:07:34.605Z,1.71
2023-01-29T03:08:34.654Z,1.7
2023-01-29T03:09:34.673Z,1.7
2023-01-29T03:10:34.721Z,1.69
2023-01-29T03:11:34.735Z,1.69
2023-01-29T03:12:34.775Z,1.71
2023-01-29T03:13:34.862Z,1.69
2023-01-29T03:14:34.849Z,1.69
2023-01-29T03:15:34.875Z,1.69
2023-01-29T03:16:34.968Z,1.7
2023-01-29T03:17:34.984Z,1.7
2023-01-29T03:18:35.003Z,1.7
2023-01-29T03:19:35.037Z,1.71
2023-01-29T03:20:35.068Z,1.72
2023-01-29T03:21:35.092Z,1.73
2023-01-29T03:22:35.122Z,1.72
2023-01-29T03:23:35.161Z,1.7
2023-01-29T03:24:35.191Z,1.71
2023-01-29T03:25:35.233Z,1.74
2023-01-29T03:26:35.273Z,1.73
2023-01-29T03:27:35.318Z,1.71
2023-01-29T03:28:35.335Z,1.74
2023-01-29T03:29:35.359Z,1.74
2023-01-29T03:30:35.391Z,1.73
2023-01-29T03:31:35.590Z,1.74
2023-01-29T03:32:35.468Z,1.75
2023-01-29T03:33:35.509Z,1.74
2023-01-29T03:34:35.545Z,1.76
2023-01-29T03:35:35.578Z,1.75
2023-01-29T03:36:35.660Z,1.73
2023-01-29T03:37:35.697Z,1.75
2023-01-29T03:38:35.684Z,1.75
2023-01-29T03:39:35.723Z,1.75
2023-01-29T03:40:35.787Z,1.75
2023-01-29T03:41:35.811Z,1.75
2023-01-29T03:42:35.866Z,1.79
2023-01-29T03:43:35.882Z,1.79
2023-01-29T03:44:35.929Z,1.79
2023-01-29T03:45:36.003Z,1.8
2023-01-29T03:46:36.014Z,1.81
2023-01-29T03:47:36.053Z,1.83
2023-01-29T03:48:36.073Z,1.85
2023-01-29T03:49:36.116Z,1.83
2023-01-29T03:50:36.156Z,1.85
2023-01-29T03:51:36.186Z,1.86
2023-01-29T03:52:36.229Z,1.88
2023-01-29T03:53:36.265Z,1.9
2023-01-29T03:54:36.298Z,1.9
2023-01-29T03:55:36.338Z,1.92
2023-01-29T03:56:36.364Z,1.93
2023-01-29T03:57:36.440Z,1.94
2023-01-29T03:58:36.445Z,1.95
2023-01-29T03:59:36.463Z,1.96
2023-01-29T04:00:36.493Z,1.95
2023-01-29T04:01:36.609Z,1.96
2023-01-29T04:02:36.584Z,1.98
2023-01-29T04:03:36.644Z,1.94
2023-01-29T04:04:36.642Z,1.95
2023-01-29T04:05:36.680Z,1.95
2023-01-29T04:06:36.720Z,1.95
2023-01-29T04:07:36.755Z,1.94
2023-01-29T04:08:36.846Z,1.97
2023-01-29T04:09:36.814Z,1.97
2023-01-29T04:10:36.847Z,1.95
2023-01-29T04:11:36.884Z,1.96
2023-01-29T04:12:36.928Z,1.96
2023-01-29T04:13:36.956Z,1.96
2023-01-29T04:14:37.003Z,1.97
2023-01-29T04:15:37.047Z,1.97
2023-01-29T04:16:37.142Z,1.98
2023-01-29T04:17:37.108Z,1.98
2023-01-29T04:18:37.145Z,1.99
2023-01-29T04:19:37.187Z,1.99
2023-01-29T04:20:37.207Z,1.99
2023-01-29T04:21:37.237Z,1.99
2023-01-29T04:22:37.269Z,1.99
2023-01-29T04:23:37.316Z,1.98
2023-01-29T04:24:37.358Z,1.98
2023-01-29T04:25:37.387Z,1.98
2023-01-29T04:26:37.422Z,1.98
2023-01-29T04:27:37.451Z,1.97
2023-01-29T04:28:37.483Z,1.97
2023-01-29T04:29:37.550Z,1.97
2023-01-29T04:30:37.591Z,1.97
2023-01-29T04:31:37.704Z,1.97
2023-01-29T04:32:37.642Z,1.97
2023-01-29T04:33:37.685Z,1.97
2023-01-29T04:34:37.746Z,1.97
2023-01-29T04:35:37.750Z,1.97
2023-01-29T04:36:37.791Z,1.98
2023-01-29T04:37:37.854Z,1.98
2023-01-29T04:38:37.877Z,1.99
2023-01-29T04:39:37.904Z,1.98
2023-01-29T04:40:37.945Z,1.98
2023-01-29T04:41:37.981Z,1.97
2023-01-29T04:42:38.023Z,1.97
2023-01-29T04:43:38.047Z,1.96
2023-01-29T04:44:38.086Z,2.01
2023-01-29T04:45:38.112Z,2.01
2023-01-29T04:46:38.147Z,2.04
2023-01-29T04:47:38.219Z,2.02
2023-01-29T04:48:38.231Z,1.99
2023-01-29T04:49:38.266Z,2.04
2023-01-29T04:50:38.333Z,2.04
2023-01-29T04:51:38.345Z,2.04
2023-01-29T04:52:38.385Z,2.05
2023-01-29T04:53:38.420Z,2.05
2023-01-29T04:54:38.452Z,2.05
2023-01-29T04:55:38.497Z,2.05
2023-01-29T04:56:38.541Z,2.05
2023-01-29T04:57:38.571Z,2.04
2023-01-29T04:58:38.606Z,2.06
2023-01-29T04:59:38.656Z,2.06
2023-01-29T05:00:38.689Z,2.04
2023-01-29T05:01:38.742Z,2.04
2023-01-29T05:02:38.831Z,2.05
2023-01-29T05:03:38.809Z,2.08
2023-01-29T05:04:38.842Z,2.08
2023-01-29T05:05:38.878Z,2.07
2023-01-29T05:06:38.904Z,2.08
2023-01-29T05:07:38.970Z,2.09
2023-01-29T05:08:38.988Z,2.11
2023-01-29T05:09:39.019Z,2.12
2023-01-29T05:10:39.056Z,2.13
2023-01-29T05:11:39.099Z,2.14
2023-01-29T05:12:39.157Z,2.15
2023-01-29T05:13:39.629Z,2.16
2023-01-29T05:14:39.226Z,2.16
2023-01-29T05:15:39.269Z,2.16
2023-01-29T05:16:39.286Z,2.17
2023-01-29T05:17:39.328Z,2.18
2023-01-29T05:18:39.390Z,2.18
2023-01-29T05:19:39.397Z,2.18
2023-01-29T05:20:39.438Z,2.17
2023-01-29T05:21:41.103Z,2.18
2023-01-29T05:22:39.517Z,2.18
2023-01-29T05:23:39.540Z,2.18
2023-01-29T05:24:39.577Z,2.18
2023-01-29T05:25:39.611Z,2.18
2023-01-29T05:26:39.679Z,2.18
2023-01-29T05:27:39.690Z,2.18
2023-01-29T05:28:39.733Z,2.17
2023-01-29T05:29:39.764Z,2.18
2023-01-29T05:30:39.884Z,2.19
2023-01-29T05:31:39.894Z,2.18
2023-01-29T05:32:39.865Z,2.2
2023-01-29T05:33:39.896Z,2.19
2023-01-29T05:34:39.926Z,2.22
2023-01-29T05:35:39.960Z,2.22
2023-01-29T05:36:39.998Z,2.22
2023-01-29T05:37:40.043Z,2.22
2023-01-29T05:38:40.079Z,2.21
2023-01-29T05:39:40.121Z,2.22
2023-01-29T05:40:40.165Z,2.22
2023-01-29T05:41:40.206Z,2.21
2023-01-29T05:42:40.238Z,2.21
2023-01-29T05:43:40.283Z,2.2
2023-01-29T05:44:40.337Z,2.2
2023-01-29T05:45:40.373Z,2.2
2023-01-29T05:46:40.439Z,2.2
2023-01-29T05:47:40.452Z,2.2
2023-01-29T05:48:40.481Z,2.19
2023-01-29T05:49:40.517Z,2.19
2023-01-29T05:50:40.561Z,2.19
2023-01-29T05:51:40.588Z,2.19
2023-01-29T05:52:40.622Z,2.19
2023-01-29T05:53:40.665Z,2.2
2023-01-29T05:54:40.700Z,2.25
2023-01-29T05:55:40.728Z,2.21
2023-01-29T05:56:40.774Z,2.24
2023-01-29T05:57:40.821Z,2.21
2023-01-29T05:58:40.847Z,2.22
2023-01-29T05:59:40.881Z,2.24
2023-01-29T06:00:40.926Z,2.24
2023-01-29T06:01:41.037Z,2.23
2023-01-29T06:02:41.061Z,2.23
2023-01-29T06:03:41.038Z,2.23
2023-01-29T06:04:41.085Z,2.23
2023-01-29T06:05:41.123Z,2.25
2023-01-29T06:06:41.153Z,2.25
2023-01-29T06:07:43.683Z,2.25
2023-01-29T06:08:41.221Z,2.25
2023-01-29T06:09:41.255Z,2.24
2023-01-29T06:10:41.282Z,2.24
2023-01-29T06:11:41.331Z,2.23
2023-01-29T06:12:41.363Z,2.23
2023-01-29T06:13:41.394Z,2.23
2023-01-29T06:14:41.441Z,2.23
2023-01-29T06:15:41.480Z,2.23
2023-01-29T06:16:41.510Z,2.23
2023-01-29T06:17:41.553Z,2.23
2023-01-29T06:18:41.581Z,2.24
2023-01-29T06:19:41.627Z,2.26
2023-01-29T06:20:41.666Z,2.25
2023-01-29T06:21:41.709Z,2.25
2023-01-29T06:22:41.736Z,2.25
2023-01-29T06:23:41.768Z,2.25
2023-01-29T06:24:41.795Z,2.28
2023-01-29T06:25:41.831Z,2.28
2023-01-29T06:26:41.868Z,2.28
2023-01-29T06:27:41.933Z,2.28
2023-01-29T06:28:41.943Z,2.28
2023-01-29T06:29:41.976Z,2.3
2023-01-29T06:30:42.079Z,2.3
2023-01-29T06:31:42.191Z,2.3
2023-01-29T06:32:42.161Z,2.3
2023-01-29T06:33:42.142Z,2.28
2023-01-29T06:34:42.168Z,2.28
2023-01-29T06:35:42.205Z,2.3
2023-01-29T06:36:42.260Z,2.3
2023-01-29T06:37:42.279Z,2.3
2023-01-29T06:38:42.336Z,2.3
2023-01-29T06:39:42.369Z,2.31
2023-01-29T06:40:42.407Z,2.3
2023-01-29T06:41:42.450Z,2.3
2023-01-29T06:42:44.137Z,2.29
2023-01-29T06:43:42.549Z,2.29
2023-01-29T06:44:42.556Z,2.3
2023-01-29T06:45:42.606Z,2.3
2023-01-29T06:46:42.623Z,2.3
2023-01-29T06:47:42.666Z,2.3
2023-01-29T06:48:42.721Z,2.3
2023-01-29T06:49:42.747Z,2.31
2023-01-29T06:50:42.778Z,2.29
2023-01-29T06:51:42.822Z,2.3
2023-01-29T06:52:42.851Z,2.32
2023-01-29T06:53:45.677Z,2.32
2023-01-29T06:54:42.921Z,2.32
2023-01-29T06:55:42.945Z,2.32
2023-01-29T06:56:42.994Z,2.32
2023-01-29T06:57:43.030Z,2.31
2023-01-29T06:58:43.051Z,2.32
2023-01-29T06:59:43.101Z,2.33
2023-01-29T07:00:43.178Z,2.33
2023-01-29T07:01:43.344Z,2.33
2023-01-29T07:02:43.196Z,2.33
2023-01-29T07:03:43.228Z,2.35
2023-01-29T07:04:43.280Z,2.35
2023-01-29T07:05:43.303Z,2.35
2023-01-29T07:06:43.337Z,2.35
2023-01-29T07:07:43.416Z,2.36
2023-01-29T07:08:43.417Z,2.35
2023-01-29T07:09:43.455Z,2.36
2023-01-29T07:10:43.485Z,2.36
2023-01-29T07:11:43.525Z,2.37
2023-01-29T07:12:43.572Z,2.37
2023-01-29T07:13:43.587Z,2.38
2023-01-29T07:14:43.622Z,2.39
2023-01-29T07:15:43.670Z,2.4
2023-01-29T07:16:43.726Z,2.4
2023-01-29T07:17:43.730Z,2.4
2023-01-29T07:18:43.769Z,2.41
2023-01-29T07:19:43.804Z,2.41
2023-01-29T07:20:43.854Z,2.42
2023-01-29T07:21:43.886Z,2.42
2023-01-29T07:22:43.907Z,2.42
2023-01-29T07:23:43.950Z,2.43
2023-01-29T07:24:43.993Z,2.43
2023-01-29T07:25:44.035Z,2.44
2023-01-29T07:26:44.056Z,2.44
2023-01-29T07:27:44.093Z,2.44
2023-01-29T07:28:44.130Z,2.45
2023-01-29T07:29:44.174Z,2.45
2023-01-29T07:30:44.207Z,2.46
2023-01-29T07:31:44.324Z,2.47
2023-01-29T07:32:44.272Z,2.47
2023-01-29T07:33:44.328Z,2.47
2023-01-29T07:34:44.348Z,2.47
2023-01-29T07:35:44.396Z,2.48
2023-01-29T07:36:44.418Z,2.48
2023-01-29T07:37:44.449Z,2.51
2023-01-29T07:38:44.485Z,2.51
2023-01-29T07:39:44.505Z,2.5
2023-01-29T07:40:44.549Z,2.5
2023-01-29T07:41:44.583Z,2.5
2023-01-29T07:42:44.624Z,2.5
2023-01-29T07:43:44.656Z,2.55
2023-01-29T07:44:44.696Z,2.57
2023-01-29T07:45:44.760Z,2.57
2023-01-29T07:46:44.772Z,2.57
2023-01-29T07:47:44.804Z,2.57
2023-01-29T07:48:44.840Z,2.57
2023-01-29T07:49:44.875Z,2.57
2023-01-29T07:50:44.900Z,2.57
2023-01-29T07:51:44.939Z,2.58
2023-01-29T07:52:44.980Z,2.58
2023-01-29T07:53:45.056Z,2.59
2023-01-29T07:54:45.041Z,2.6
2023-01-29T07:55:45.097Z,2.61
2023-01-29T07:56:45.121Z,2.62
2023-01-29T07:57:45.150Z,2.62
2023-01-29T07:58:45.206Z,2.63
2023-01-29T07:59:45.222Z,2.63
2023-01-29T08:00:45.284Z,2.63
2023-01-29T08:01:45.290Z,2.63
2023-01-29T08:02:45.325Z,2.66
2023-01-29T08:03:45.355Z,2.66
2023-01-29T08:04:45.391Z,2.67
2023-01-29T08:05:45.442Z,2.67
2023-01-29T08:06:45.469Z,2.67
2023-01-29T08:07:49.325Z,2.68
2023-01-29T08:08:45.530Z,2.68
2023-01-29T08:09:47.576Z,2.69
2023-01-29T08:10:45.605Z,2.69
2023-01-29T08:11:45.640Z,2.69
2023-01-29T08:12:45.687Z,2.7
2023-01-29T08:13:45.726Z,2.68
2023-01-29T08:14:45.772Z,2.68
2023-01-29T08:15:45.778Z,2.69
2023-01-29T08:16:45.821Z,2.71
2023-01-29T08:17:57.288Z,2.71
2023-01-29T08:18:45.874Z,2.7
2023-01-29T08:19:45.910Z,2.7
2023-01-29T08:20:45.943Z,2.71
2023-01-29T08:21:45.982Z,2.71
2023-01-29T08:22:46.012Z,2.71
2023-01-29T08:23:46.054Z,2.7
2023-01-29T08:24:53.746Z,2.7
2023-01-29T08:25:46.166Z,2.7
2023-01-29T08:26:46.159Z,2.7
2023-01-29T08:27:46.181Z,2.71
2023-01-29T08:28:46.226Z,2.71
2023-01-29T08:29:46.251Z,2.71
2023-01-29T08:30:46.342Z,2.7
2023-01-29T08:31:46.348Z,2.7
2023-01-29T08:32:46.364Z,2.73
2023-01-29T08:33:46.403Z,2.74
2023-01-29T08:34:46.429Z,2.73
2023-01-29T08:35:46.477Z,2.72
2023-01-29T08:36:46.504Z,2.73
2023-01-29T08:37:46.532Z,2.72
2023-01-29T08:38:46.573Z,2.72
2023-01-29T08:39:46.634Z,2.72
2023-01-29T08:40:46.648Z,2.72
2023-01-29T08:41:46.674Z,2.75
2023-01-29T08:42:46.718Z,2.77
2023-01-29T08:43:46.754Z,2.77
2023-01-29T08:44:46.785Z,2.76
2023-01-29T08:45:46.906Z,2.76
2023-01-29T08:46:46.842Z,2.76
2023-01-29T08:47:46.888Z,2.78
2023-01-29T08:48:46.919Z,2.77
2023-01-29T08:49:46.962Z,2.77
2023-01-29T08:50:46.985Z,2.77
2023-01-29T08:51:47.027Z,2.77
2023-01-29T08:52:47.057Z,2.78
2023-01-29T08:53:47.100Z,2.79
2023-01-29T08:54:47.119Z,2.78
2023-01-29T08:55:47.144Z,2.79
2023-01-29T08:56:47.180Z,2.79
2023-01-29T08:57:47.212Z,2.78
2023-01-29T08:58:47.290Z,2.78
2023-01-29T08:59:47.293Z,2.79
2023-01-29T09:00:47.327Z,2.79
2023-01-29T09:01:47.358Z,2.79
2023-01-29T09:02:47.495Z,2.78
2023-01-29T09:03:47.441Z,2.8
2023-01-29T09:04:47.475Z,2.83
2023-01-29T09:05:47.500Z,2.84
2023-01-29T09:06:47.539Z,2.82
2023-01-29T09:07:47.572Z,2.84
2023-01-29T09:08:47.600Z,2.84
2023-01-29T09:09:47.646Z,2.87
2023-01-29T09:10:47.687Z,2.86
2023-01-29T09:11:47.722Z,2.86
2023-01-29T09:12:47.760Z,2.87
2023-01-29T09:13:47.788Z,2.89
2023-01-29T09:14:47.815Z,2.88
2023-01-29T09:15:47.842Z,2.87
2023-01-29T09:16:47.926Z,2.86
2023-01-29T09:17:47.913Z,2.86
2023-01-29T09:18:47.950Z,2.88
2023-01-29T09:19:48.031Z,2.88
2023-01-29T09:20:48.042Z,2.88
2023-01-29T09:21:48.045Z,2.87
2023-01-29T09:22:48.094Z,2.87
2023-01-29T09:23:48.115Z,2.92
2023-01-29T09:24:48.169Z,2.92
2023-01-29T09:25:48.196Z,2.92
2023-01-29T09:26:48.229Z,2.93
2023-01-29T09:27:48.258Z,2.9
2023-01-29T09:28:48.297Z,2.92
2023-01-29T09:29:48.331Z,2.92
2023-01-29T09:30:48.537Z,2.92
2023-01-29T09:31:48.544Z,2.93
2023-01-29T09:32:54.752Z,2.92
2023-01-29T09:33:48.459Z,2.92
2023-01-29T09:34:48.497Z,2.93
2023-01-29T09:35:48.536Z,2.96
2023-01-29T09:36:48.581Z,2.97
2023-01-29T09:37:48.635Z,2.94
2023-01-29T09:38:48.648Z,2.96
2023-01-29T09:39:48.689Z,2.97
2023-01-29T09:40:48.737Z,2.96
2023-01-29T09:41:48.767Z,2.96
2023-01-29T09:42:48.798Z,3
2023-01-29T09:43:48.828Z,3.02
2023-01-29T09:44:48.863Z,3.02
2023-01-29T09:45:48.937Z,3.01
2023-01-29T09:46:48.933Z,3.07
2023-01-29T09:47:48.968Z,3.08
2023-01-29T09:48:49.020Z,3.1
2023-01-29T09:49:49.035Z,3.14
2023-01-29T09:50:49.068Z,3.18
2023-01-29T09:51:49.102Z,3.18
2023-01-29T09:52:49.149Z,3.2
2023-01-29T09:53:49.212Z,3.24
2023-01-29T09:54:49.224Z,3.31
2023-01-29T09:55:49.260Z,3.31
2023-01-29T09:56:49.293Z,3.36
2023-01-29T09:57:49.329Z,3.38
2023-01-29T09:58:49.418Z,3.4
2023-01-29T09:59:49.396Z,3.43
2023-01-29T10:00:49.419Z,3.45
2023-01-29T10:01:49.545Z,3.46
2023-01-29T10:02:49.491Z,3.46
2023-01-29T10:03:49.553Z,3.44
2023-01-29T10:04:49.637Z,3.46
2023-01-29T10:05:49.652Z,3.46
2023-01-29T10:06:49.638Z,3.46
2023-01-29T10:07:49.667Z,3.48
2023-01-29T10:08:49.703Z,3.48
2023-01-29T10:09:49.740Z,3.48
2023-01-29T10:10:49.773Z,3.48
2023-01-29T10:11:49.809Z,3.49
2023-01-29T10:12:49.849Z,3.51
2023-01-29T10:13:49.880Z,3.53
2023-01-29T10:14:49.920Z,3.55
2023-01-29T10:15:49.965Z,3.55
2023-01-29T10:16:50.073Z,3.58
2023-01-29T10:17:50.559Z,3.56
2023-01-29T10:18:50.052Z,3.56
2023-01-29T10:19:50.090Z,3.57
2023-01-29T10:20:50.113Z,3.58
2023-01-29T10:21:50.150Z,3.59
2023-01-29T10:22:50.176Z,3.58
2023-01-29T10:23:50.253Z,3.58
2023-01-29T10:24:50.260Z,3.6
2023-01-29T10:25:50.299Z,3.63
2023-01-29T10:26:50.330Z,3.61
2023-01-29T10:27:50.377Z,3.66
2023-01-29T10:28:50.411Z,3.72
2023-01-29T10:29:50.439Z,3.76
2023-01-29T10:30:50.547Z,3.85
2023-01-29T10:31:50.600Z,3.89
2023-01-29T10:32:50.546Z,3.94
2023-01-29T10:34:01.504Z,4
2023-01-29T10:34:50.630Z,4
2023-01-29T10:35:50.656Z,4.04
2023-01-29T10:36:50.690Z,4.04
2023-01-29T10:37:50.736Z,4.03
2023-01-29T10:38:50.767Z,4.05
2023-01-29T10:39:50.839Z,4.04
2023-01-29T10:40:50.854Z,4.01
2023-01-29T10:41:52.541Z,4
2023-01-29T10:42:50.924Z,4
2023-01-29T10:43:50.959Z,4.02
2023-01-29T10:44:51.096Z,4.05
2023-01-29T10:45:51.042Z,4.03
2023-01-29T10:46:51.064Z,4.06
2023-01-29T10:47:51.132Z,4.03
2023-01-29T10:48:51.120Z,4.04
2023-01-29T10:49:51.162Z,4.02
2023-01-29T10:50:51.232Z,4.01
2023-01-29T10:51:51.240Z,4.05
2023-01-29T10:52:51.276Z,4.03
2023-01-29T10:53:51.308Z,4.04
2023-01-29T10:54:51.356Z,4.04
2023-01-29T10:55:51.414Z,4.03
2023-01-29T10:56:51.427Z,4.08
2023-01-29T10:57:51.508Z,4.1
2023-01-29T10:58:51.508Z,4.07
2023-01-29T10:59:51.532Z,4.06
2023-01-29T11:00:51.558Z,4.09
2023-01-29T11:01:51.690Z,4.04
2023-01-29T11:02:51.819Z,4.02
2023-01-29T11:03:51.671Z,4.05
2023-01-29T11:04:51.705Z,4.07
2023-01-29T11:05:51.739Z,4.08
2023-01-29T11:06:51.766Z,4.08
2023-01-29T11:07:51.797Z,4.06
2023-01-29T11:08:51.845Z,4.02
2023-01-29T11:09:51.894Z,4.03
2023-01-29T11:10:51.912Z,4.01
2023-01-29T11:11:51.949Z,4.03
2023-01-29T11:12:51.992Z,4.01
2023-01-29T11:13:52.021Z,4
2023-01-29T11:14:52.061Z,3.97
2023-01-29T11:15:52.085Z,3.96
2023-01-29T11:16:52.241Z,4
2023-01-29T11:17:52.152Z,4
2023-01-29T11:18:52.179Z,3.99
2023-01-29T11:19:52.211Z,3.99
2023-01-29T11:20:52.264Z,3.97
2023-01-29T11:21:52.290Z,3.97
2023-01-29T11:22:52.328Z,3.92
2023-01-29T11:23:52.360Z,3.91
2023-01-29T11:24:52.400Z,3.88
2023-01-29T11:25:52.446Z,3.9
2023-01-29T11:26:52.487Z,3.93
2023-01-29T11:27:52.518Z,3.95
2023-01-29T11:28:52.564Z,3.94
2023-01-29T11:29:52.581Z,3.88
2023-01-29T11:30:52.814Z,3.86
2023-01-29T11:31:52.685Z,3.87
2023-01-29T11:32:52.694Z,3.87
2023-01-29T11:33:52.746Z,3.91
2023-01-29T11:34:52.781Z,3.9
2023-01-29T11:35:53.016Z,3.9
2023-01-29T11:36:52.817Z,3.87
2023-01-29T11:37:52.842Z,3.86
2023-01-29T11:38:52.895Z,3.86
2023-01-29T11:39:52.931Z,3.89
2023-01-29T11:40:52.987Z,3.87
2023-01-29T11:41:53.001Z,3.84
2023-01-29T11:42:53.031Z,3.86
2023-01-29T11:43:53.067Z,3.87
2023-01-29T11:44:53.101Z,3.86
2023-01-29T11:45:53.158Z,3.87
2023-01-29T11:46:53.185Z,3.86
2023-01-29T11:47:53.253Z,3.87
2023-01-29T11:48:54.805Z,3.87
2023-01-29T11:49:53.300Z,3.85
2023-01-29T11:50:53.350Z,3.86
2023-01-29T11:51:53.350Z,3.86
2023-01-29T11:52:53.403Z,3.85
2023-01-29T11:53:53.466Z,3.86
2023-01-29T11:54:53.456Z,3.88
2023-01-29T11:55:53.505Z,3.89
2023-01-29T11:56:53.522Z,3.92
2023-01-29T11:57:53.554Z,3.94
2023-01-29T11:58:53.611Z,3.89
2023-01-29T11:59:53.654Z,3.87
2023-01-29T12:00:53.683Z,3.86
2023-01-29T12:01:53.699Z,3.86
2023-01-29T12:02:53.733Z,3.87
2023-01-29T12:03:54.012Z,3.9
2023-01-29T12:04:53.796Z,3.84
2023-01-29T12:05:53.951Z,3.85
2023-01-29T12:06:53.874Z,3.85
2023-01-29T12:07:53.920Z,3.84
2023-01-29T12:08:53.946Z,3.87
2023-01-29T12:09:53.980Z,3.84
2023-01-29T12:10:54.053Z,3.85
2023-01-29T12:11:54.055Z,3.86
2023-01-29T12:12:54.101Z,3.85
2023-01-29T12:13:54.131Z,3.84
2023-01-29T12:14:54.157Z,3.84
2023-01-29T12:15:54.914Z,3.84
2023-01-29T12:16:54.236Z,3.85
2023-01-29T12:17:54.272Z,3.78
2023-01-29T12:18:54.302Z,3.78
2023-01-29T12:19:54.340Z,3.77
2023-01-29T12:20:54.370Z,3.8
2023-01-29T12:21:54.408Z,3.83
2023-01-29T12:22:54.454Z,3.82
2023-01-29T12:23:54.482Z,3.83
2023-01-29T12:24:54.520Z,3.8
2023-01-29T12:25:54.566Z,3.82
2023-01-29T12:26:54.599Z,3.8
2023-01-29T12:27:54.665Z,3.75
2023-01-29T12:28:54.662Z,3.72
2023-01-29T12:29:54.705Z,3.73
2023-01-29T12:30:54.768Z,3.73
2023-01-29T12:31:54.762Z,3.71
2023-01-29T12:32:54.822Z,3.74
2023-01-29T12:33:54.872Z,3.76
2023-01-29T12:34:54.856Z,3.77
2023-01-29T12:35:54.909Z,3.74
2023-01-29T12:36:54.921Z,3.74
2023-01-29T12:37:54.979Z,3.74
2023-01-29T12:38:55.014Z,3.73
2023-01-29T12:39:55.068Z,3.73
2023-01-29T12:40:55.081Z,3.74
2023-01-29T12:41:55.104Z,3.71
2023-01-29T12:42:55.148Z,3.7
2023-01-29T12:43:55.185Z,3.71
2023-01-29T12:44:55.321Z,3.72
2023-01-29T12:45:55.253Z,3.72
2023-01-29T12:46:55.379Z,3.72
2023-01-29T12:47:55.312Z,3.73
2023-01-29T12:48:55.356Z,3.73
2023-01-29T12:49:55.391Z,3.73
2023-01-29T12:50:55.444Z,3.73
2023-01-29T12:51:55.474Z,3.73
2023-01-29T12:52:55.515Z,3.71
2023-01-29T12:53:55.541Z,3.7
2023-01-29T12:54:55.577Z,3.71
2023-01-29T12:55:55.690Z,3.67
2023-01-29T12:56:55.650Z,3.66
2023-01-29T12:57:55.686Z,3.65
2023-01-29T12:58:55.711Z,3.66
2023-01-29T12:59:55.740Z,3.67
2023-01-29T13:00:55.872Z,3.67
2023-01-29T13:01:55.810Z,3.65
2023-01-29T13:02:55.947Z,3.65
2023-01-29T13:03:55.882Z,3.64
2023-01-29T13:04:55.919Z,3.64
2023-01-29T13:05:55.960Z,3.65
2023-01-29T13:06:55.991Z,3.64
2023-01-29T13:07:56.025Z,3.61
2023-01-29T13:08:56.061Z,3.6
2023-01-29T13:09:56.099Z,3.6
2023-01-29T13:10:56.139Z,3.61
2023-01-29T13:11:56.172Z,3.6
2023-01-29T13:12:56.230Z,3.63
2023-01-29T13:13:56.250Z,3.64
2023-01-29T13:14:56.276Z,3.64
2023-01-29T13:15:56.313Z,3.62
2023-01-29T13:16:56.347Z,3.62
2023-01-29T13:17:56.423Z,3.61
2023-01-29T13:18:56.418Z,3.61
2023-01-29T13:19:56.449Z,3.58
2023-01-29T13:20:56.487Z,3.59
2023-01-29T13:21:56.530Z,3.55
2023-01-29T13:22:56.581Z,3.57